Sunny Noah — JD3284 — position and weather

sailwx.info

Track history (hours):
 
Tides and Currents Weather Stations Pressure Air Temp Water Temp Dewpoint Dewpoint Depression Visibility Wind Speed Wind Dir Waves Ship Positions

Sunny Noah

Last reported at 2018-Feb-18 07:13 UTC. Time now 2018-Feb-19 04:11 UTC.
Position N 34°32' E 137°01'.

Length 110 m; draft 6.3 m.

Type: Tanker. MMSI: 431003074.

Date/timePositionNaut miles runAvg speedWind from/ knotsBaromVisibWave heightAir tempDewpointWater temp
2018-Feb-18 07:13N 34°32' E 137°01'312.8
2018-Feb-18 06:59N 34°34' E 136°59'613.2
2018-Feb-18 06:30N 34°38' E 136°53'713.5
2018-Feb-18 06:01N 34°44' E 136°48'713.8
2018-Feb-18 05:30N 34°50' E 136°46'713.6
2018-Feb-18 05:00N 34°57' E 136°47'3 4.9
2018-Feb-18 04:26N 34°59' E 136°50'0 0.0
2018-Feb-18 03:59N 34°59' E 136°50'0 0.0
2018-Feb-18 03:29N 34°59' E 136°50'0 0.0
2018-Feb-18 02:56N 34°59' E 136°50'0 0.0
2018-Feb-18 02:29N 34°59' E 136°50'0 0.0
2018-Feb-18 01:56N 34°59' E 136°50'0 0.0
2018-Feb-18 01:28N 34°59' E 136°50'0 0.0
2018-Feb-18 00:56N 34°59' E 136°50'0 0.0
2018-Feb-18 00:26N 34°59' E 136°50'0 0.0
2018-Feb-17 23:53N 34°59' E 136°50'1 2.9
2018-Feb-17 23:30N 34°59' E 136°49'3 4.2
2018-Feb-17 22:55N 34°57' E 136°46'0 0.0
2018-Feb-17 22:28N 34°57' E 136°46'0 0.0
2018-Feb-17 21:55N 34°57' E 136°46'0 0.0
2018-Feb-17 21:25N 34°57' E 136°46'0 0.1
2018-Feb-17 20:55N 34°57' E 136°47'0 0.0
2018-Feb-17 20:28N 34°57' E 136°47'0 0.0
2018-Feb-17 19:55N 34°57' E 136°47'0 0.0
2018-Feb-17 19:25N 34°57' E 136°47'0 0.0
2018-Feb-17 18:55N 34°57' E 136°47'0 0.0
2018-Feb-17 18:25N 34°57' E 136°47'0 0.0
2018-Feb-17 17:58N 34°57' E 136°47'0 0.0
2018-Feb-17 17:28N 34°57' E 136°47'0 0.1
2018-Feb-17 16:58N 34°57' E 136°46'0 0.1
2018-Feb-17 16:25N 34°57' E 136°47'0 0.0
2018-Feb-17 15:55N 34°57' E 136°47'0 0.1
2018-Feb-17 15:28N 34°57' E 136°46'0 0.1
2018-Feb-17 14:58N 34°57' E 136°47'0 0.0
2018-Feb-17 14:28N 34°57' E 136°47'0 0.0
2018-Feb-17 13:55N 34°57' E 136°47'0 0.0
2018-Feb-17 13:19N 34°57' E 136°47'0 0.0
2018-Feb-17 12:55N 34°57' E 136°47'0 0.0
2018-Feb-17 12:28N 34°57' E 136°47'0 0.0
2018-Feb-17 11:58N 34°57' E 136°47'0 0.0
2018-Feb-17 11:25N 34°57' E 136°47'0 0.0
2018-Feb-17 10:58N 34°57' E 136°47'0 0.0
2018-Feb-17 10:25N 34°57' E 136°47'0 0.0
2018-Feb-17 09:55N 34°57' E 136°47'0 0.0
2018-Feb-17 09:25N 34°57' E 136°47'0 0.0
2018-Feb-17 08:58N 34°57' E 136°47'0 0.1
2018-Feb-17 08:25N 34°57' E 136°47'0 0.1
2018-Feb-17 07:55N 34°57' E 136°47'0 0.0
2018-Feb-17 07:28N 34°57' E 136°47'0 0.0
2018-Feb-17 06:55N 34°57' E 136°47'0 0.1
2018-Feb-17 06:25N 34°57' E 136°47'0 0.0
2018-Feb-17 05:58N 34°57' E 136°47'0 0.1
2018-Feb-17 05:28N 34°57' E 136°47'0 0.1
2018-Feb-17 04:58N 34°57' E 136°47'0 0.0
2018-Feb-17 04:25N 34°57' E 136°47'0 1.2
2018-Feb-17 04:00N 34°58' E 136°47'3 5.7
2018-Feb-17 03:28N 34°59' E 136°50'0 0.0
2018-Feb-17 02:58N 34°59' E 136°50'0 0.0
2018-Feb-17 02:25N 34°59' E 136°50'0 0.0
2018-Feb-17 01:55N 34°59' E 136°50'0 0.0
2018-Feb-17 01:28N 34°59' E 136°50'0 0.0
2018-Feb-17 00:58N 34°59' E 136°50'0 0.0
2018-Feb-17 00:25N 34°59' E 136°50'0 0.0
2018-Feb-16 23:58N 34°59' E 136°50'0 0.0
2018-Feb-16 23:28N 34°59' E 136°50'1 1.8
2018-Feb-16 23:00N 34°59' E 136°49'4 7.4
2018-Feb-16 22:30N 35°02' E 136°51'0 0.2
2018-Feb-16 21:56N 35°02' E 136°51'0 0.0
2018-Feb-16 21:29N 35°02' E 136°51'0 0.0
2018-Feb-16 20:56N 35°02' E 136°51'0 0.0
2018-Feb-16 20:29N 35°02' E 136°51'0 0.0
2018-Feb-16 19:59N 35°02' E 136°51'0 0.0
2018-Feb-16 19:29N 35°02' E 136°51'0 0.0
2018-Feb-16 18:56N 35°02' E 136°51'0 0.0
2018-Feb-16 18:29N 35°02' E 136°51'0 0.0
2018-Feb-16 17:56N 35°02' E 136°51'0 0.0
2018-Feb-16 17:26N 35°02' E 136°51'0 0.0
2018-Feb-16 16:56N 35°02' E 136°51'0 0.0
2018-Feb-16 16:20N 35°02' E 136°51'0 0.0
2018-Feb-16 15:56N 35°02' E 136°51'0 0.0
2018-Feb-16 15:26N 35°02' E 136°51'0 0.0
2018-Feb-16 14:56N 35°02' E 136°51'0 0.0
2018-Feb-16 14:26N 35°02' E 136°51'0 0.0
2018-Feb-16 13:59N 35°02' E 136°51'0 0.0
2018-Feb-16 13:26N 35°02' E 136°51'0 0.0
2018-Feb-16 12:59N 35°02' E 136°51'0 0.0
2018-Feb-16 12:26N 35°02' E 136°51'0 0.0
2018-Feb-16 11:56N 35°02' E 136°51'0 0.0
2018-Feb-16 11:26N 35°02' E 136°51'0 0.0
2018-Feb-16 10:59N 35°02' E 136°51'0 0.0
2018-Feb-16 10:26N 35°02' E 136°51'0 0.0
2018-Feb-16 09:56N 35°02' E 136°51'0 0.0
2018-Feb-16 09:26N 35°02' E 136°51'0 0.0
2018-Feb-16 08:56N 35°02' E 136°51'0 0.0
2018-Feb-16 08:20N 35°02' E 136°51'0 0.0
2018-Feb-16 07:56N 35°02' E 136°51'0 0.0
2018-Feb-16 07:26N 35°02' E 136°51'0 0.0
2018-Feb-16 06:56N 35°02' E 136°51'0 0.0
2018-Feb-16 06:29N 35°02' E 136°51'0 0.0
2018-Feb-16 05:59N 35°02' E 136°51'0 0.0
2018-Feb-16 05:29N 35°02' E 136°51'0 0.0
2018-Feb-16 04:53N 35°02' E 136°51'0 0.0
2018-Feb-16 04:26N 35°02' E 136°51'0 0.0
2018-Feb-16 03:56N 35°02' E 136°51'0 0.0
2018-Feb-16 03:26N 35°02' E 136°51'0 0.0
2018-Feb-16 02:56N 35°02' E 136°51'0 0.0
2018-Feb-16 02:26N 35°02' E 136°51'0 0.0
2018-Feb-16 01:56N 35°02' E 136°51'0 0.0
2018-Feb-16 01:29N 35°02' E 136°51'0 0.0
2018-Feb-16 00:59N 35°02' E 136°51'0 0.0
2018-Feb-16 00:26N 35°02' E 136°51'0 0.0
2018-Feb-15 23:56N 35°02' E 136°51'0 0.0
2018-Feb-15 23:14N 35°02' E 136°51'0 0.2
2018-Feb-15 23:00N 35°02' E 136°51'3 5.9
2018-Feb-15 22:30N 34°60' E 136°49'2 4.0
2018-Feb-15 21:59N 34°58' E 136°47'0 0.1
2018-Feb-15 21:29N 34°58' E 136°47'0 0.0
2018-Feb-15 20:59N 34°58' E 136°47'0 0.0
2018-Feb-15 20:29N 34°58' E 136°47'0 0.0
2018-Feb-15 19:59N 34°58' E 136°47'0 0.1
2018-Feb-15 19:29N 34°58' E 136°47'0 0.0
2018-Feb-15 18:59N 34°58' E 136°47'0 0.0
2018-Feb-15 18:23N 34°58' E 136°47'0 0.0
2018-Feb-15 17:59N 34°58' E 136°47'0 0.1
2018-Feb-15 17:29N 34°58' E 136°47'0 0.0
2018-Feb-15 16:59N 34°58' E 136°47'0 0.0
2018-Feb-15 16:29N 34°58' E 136°47'0 0.0
2018-Feb-15 15:59N 34°58' E 136°47'0 0.0
2018-Feb-15 15:29N 34°58' E 136°47'0 0.0
2018-Feb-15 14:59N 34°58' E 136°47'0 0.0
2018-Feb-15 14:29N 34°58' E 136°47'0 0.0
2018-Feb-15 13:59N 34°58' E 136°47'0 0.0
2018-Feb-15 13:29N 34°58' E 136°47'0 0.0
2018-Feb-15 12:59N 34°58' E 136°47'0 0.0
2018-Feb-15 12:29N 34°58' E 136°47'3 7.0
2018-Feb-15 12:01N 34°55' E 136°47'713.3
2018-Feb-15 11:30N 34°48' E 136°47'713.1
2018-Feb-15 11:01N 34°43' E 136°51'713.1
2018-Feb-15 10:30N 34°37' E 136°56'713.2
2018-Feb-15 10:00N 34°33' E 137°02'2713.2
2018-Feb-15 07:59N 34°08' E 136°48'3114.4
2018-Feb-15 05:51N 33°47' E 136°21'16814.3
2018-Feb-14 18:05N 32°46' E 133°15'6613.0
2018-Feb-14 12:57N 33°14' E 132°03'2714.5
2018-Feb-14 11:07N 33°39' E 131°51'314.2
2018-Feb-14 10:55N 33°42' E 131°50'614.1
2018-Feb-14 10:30N 33°48' E 131°49'714.4
2018-Feb-14 10:00N 33°54' E 131°46'612.5
2018-Feb-14 09:30N 34°01' E 131°46'2 2.4
2018-Feb-14 08:30N 34°02' E 131°48'0 0.0
2018-Feb-14 07:54N 34°02' E 131°48'0 0.0
2018-Feb-14 07:30N 34°02' E 131°48'0 0.0
2018-Feb-14 07:00N 34°02' E 131°48'0 0.0
2018-Feb-14 06:30N 34°02' E 131°48'0 0.0
2018-Feb-14 05:57N 34°02' E 131°48'0 0.0
2018-Feb-14 05:21N 34°02' E 131°48'0 1.1
2018-Feb-14 04:59N 34°02' E 131°48'0 0.3
2018-Feb-14 04:30N 34°02' E 131°49'2 2.2
2018-Feb-14 03:48N 34°01' E 131°47'0 0.1
2018-Feb-14 03:30N 34°01' E 131°47'2 3.2
2018-Feb-14 02:54N 34°02' E 131°49'0 0.0
2018-Feb-14 02:30N 34°02' E 131°49'0 0.0
2018-Feb-14 02:00N 34°02' E 131°49'0 0.0
2018-Feb-14 01:24N 34°02' E 131°49'0 0.0
2018-Feb-14 01:00N 34°02' E 131°49'0 0.0
2018-Feb-14 00:30N 34°02' E 131°49'0 0.0
2018-Feb-13 23:30N 34°02' E 131°49'0 0.0
2018-Feb-13 22:54N 34°02' E 131°49'0 0.0
2018-Feb-13 22:30N 34°02' E 131°49'0 0.2
2018-Feb-13 21:57N 34°02' E 131°49'2 4.1
2018-Feb-13 21:28N 34°01' E 131°47'0 0.0
2018-Feb-13 20:58N 34°01' E 131°47'0 0.0
2018-Feb-13 19:28N 34°01' E 131°47'0 0.0
2018-Feb-13 18:58N 34°01' E 131°47'0 0.0
2018-Feb-13 18:28N 34°01' E 131°47'0 0.0
2018-Feb-13 17:58N 34°01' E 131°47'0 0.0
2018-Feb-13 17:22N 34°01' E 131°47'0 0.0
2018-Feb-13 16:46N 34°01' E 131°47'0 0.0
2018-Feb-13 16:22N 34°01' E 131°47'0 0.0
2018-Feb-13 15:58N 34°01' E 131°47'0 0.0
2018-Feb-13 15:10N 34°01' E 131°47'0 0.0
2018-Feb-13 14:58N 34°01' E 131°47'0 0.0
2018-Feb-13 14:22N 34°01' E 131°47'0 0.0
2018-Feb-13 13:58N 34°01' E 131°47'2 5.3
2018-Feb-13 13:30N 33°59' E 131°45'712.9
2018-Feb-13 12:56N 33°52' E 131°48'613.6
2018-Feb-13 12:30N 33°47' E 131°50'713.5
2018-Feb-13 12:00N 33°40' E 131°52'713.7
2018-Feb-13 11:30N 33°33' E 131°55'713.9
2018-Feb-13 10:59N 33°27' E 131°57'713.9
2018-Feb-13 10:30N 33°20' E 131°60'26011.0
2018-Feb-12 10:53N 34°33' E 137°01'513.1
2018-Feb-12 10:30N 34°36' E 136°57'714.3
2018-Feb-12 10:00N 34°40' E 136°50'714.6
2018-Feb-12 09:30N 34°47' E 136°46'714.3
2018-Feb-12 09:00N 34°54' E 136°46'611.2
2018-Feb-12 08:30N 34°59' E 136°50'0 0.9
2018-Feb-12 07:59N 34°59' E 136°50'0 0.0
2018-Feb-12 07:26N 34°59' E 136°50'0 0.0
2018-Feb-12 06:56N 34°59' E 136°50'0 0.0
2018-Feb-12 06:26N 34°59' E 136°50'0 0.0
2018-Feb-12 05:59N 34°59' E 136°50'0 0.0
2018-Feb-12 05:29N 34°59' E 136°50'0 0.3
2018-Feb-12 04:59N 34°59' E 136°50'0 0.2
2018-Feb-12 04:26N 34°59' E 136°50'0 0.0
2018-Feb-12 03:59N 34°59' E 136°50'0 0.0
2018-Feb-12 03:20N 34°59' E 136°50'0 0.0
2018-Feb-12 02:56N 34°59' E 136°50'0 0.0
2018-Feb-12 02:29N 34°59' E 136°50'0 0.0
2018-Feb-12 01:56N 34°59' E 136°50'0 0.0
2018-Feb-12 01:26N 34°59' E 136°50'0 0.0
2018-Feb-12 00:56N 34°59' E 136°50'0 0.0
2018-Feb-12 00:26N 34°59' E 136°50'0 0.0
2018-Feb-11 23:59N 34°59' E 136°50'1 1.9
2018-Feb-11 23:30N 34°59' E 136°49'3 7.0
2018-Feb-11 23:01N 35°02' E 136°51'1 1.4
2018-Feb-11 22:30N 35°02' E 136°51'0 0.0
2018-Feb-11 22:00N 35°02' E 136°51'0 0.0
2018-Feb-11 21:27N 35°02' E 136°51'0 0.0
2018-Feb-11 20:57N 35°02' E 136°51'0 0.0
2018-Feb-11 20:27N 35°02' E 136°51'0 0.0
2018-Feb-11 19:58N 35°02' E 136°51'0 0.0
2018-Feb-11 19:28N 35°02' E 136°51'0 0.0
2018-Feb-11 19:00N 35°02' E 136°51'0 0.0
2018-Feb-11 18:28N 35°02' E 136°51'0 0.0
2018-Feb-11 17:57N 35°02' E 136°51'0 0.0
2018-Feb-11 17:28N 35°02' E 136°51'0 0.0
2018-Feb-11 17:00N 35°02' E 136°51'0 0.0
2018-Feb-11 16:30N 35°02' E 136°51'0 0.0
2018-Feb-11 16:01N 35°02' E 136°51'0 0.0
2018-Feb-11 15:27N 35°02' E 136°51'0 0.0
2018-Feb-11 14:57N 35°02' E 136°51'0 0.0
2018-Feb-11 14:27N 35°02' E 136°51'0 0.0
2018-Feb-11 13:58N 35°02' E 136°51'0 0.0
2018-Feb-11 13:31N 35°02' E 136°51'0 0.0
2018-Feb-11 12:58N 35°02' E 136°51'0 0.0
2018-Feb-11 12:28N 35°02' E 136°51'0 0.0
2018-Feb-11 11:57N 35°02' E 136°51'0 0.0
2018-Feb-11 11:28N 35°02' E 136°51'0 0.0
2018-Feb-11 10:57N 35°02' E 136°51'0 0.0
2018-Feb-11 10:30N 35°02' E 136°51'0 0.0
2018-Feb-11 09:57N 35°02' E 136°51'0 0.0
2018-Feb-11 09:27N 35°02' E 136°51'0 0.0
2018-Feb-11 08:58N 35°02' E 136°51'0 0.0
2018-Feb-11 08:28N 35°02' E 136°51'0 0.0
2018-Feb-11 08:00N 35°02' E 136°51'0 0.0
2018-Feb-11 07:27N 35°02' E 136°51'0 0.0
2018-Feb-11 07:00N 35°02' E 136°51'0 0.0
2018-Feb-11 06:27N 35°02' E 136°51'0 0.0
2018-Feb-11 05:57N 35°02' E 136°51'0 0.0
2018-Feb-11 05:27N 35°02' E 136°51'0 0.0
2018-Feb-11 05:01N 35°02' E 136°51'0 0.0
2018-Feb-11 04:28N 35°02' E 136°51'0 0.0
2018-Feb-11 03:58N 35°02' E 136°51'0 0.0
2018-Feb-11 03:31N 35°02' E 136°51'0 0.0
2018-Feb-11 03:00N 35°02' E 136°51'0 0.0
2018-Feb-11 02:27N 35°02' E 136°51'0 0.0
2018-Feb-11 02:00N 35°02' E 136°51'0 0.0
2018-Feb-11 01:27N 35°02' E 136°51'0 0.0
2018-Feb-11 01:00N 35°02' E 136°51'0 0.0
2018-Feb-11 00:30N 35°02' E 136°51'0 0.0
2018-Feb-10 23:58N 35°02' E 136°51'0 0.0
2018-Feb-10 23:27N 35°02' E 136°51'0 0.1
2018-Feb-10 23:00N 35°02' E 136°51'3 6.9
2018-Feb-10 22:30N 34°59' E 136°49'2 3.6
2018-Feb-10 22:00N 34°58' E 136°47'0 0.0
2018-Feb-10 21:28N 34°58' E 136°47'0 0.0
2018-Feb-10 20:58N 34°58' E 136°47'0 0.0
2018-Feb-10 20:28N 34°58' E 136°47'0 0.0
2018-Feb-10 19:58N 34°58' E 136°47'0 0.0
2018-Feb-10 19:28N 34°58' E 136°47'0 0.0
2018-Feb-10 18:58N 34°58' E 136°47'0 0.0
2018-Feb-10 18:28N 34°58' E 136°47'0 0.1
2018-Feb-10 17:58N 34°58' E 136°47'0 0.1
2018-Feb-10 17:28N 34°58' E 136°47'0 0.1
2018-Feb-10 16:58N 34°58' E 136°47'0 0.0
2018-Feb-10 16:28N 34°58' E 136°47'0 0.0
2018-Feb-10 15:58N 34°58' E 136°47'0 0.0
2018-Feb-10 15:28N 34°58' E 136°47'0 0.0
2018-Feb-10 14:58N 34°58' E 136°47'0 0.0
2018-Feb-10 14:28N 34°58' E 136°47'0 0.0
2018-Feb-10 13:58N 34°58' E 136°47'0 0.0
2018-Feb-10 13:28N 34°58' E 136°47'0 0.0
2018-Feb-10 12:58N 34°58' E 136°47'0 0.2
2018-Feb-10 12:28N 34°58' E 136°47'510.0
2018-Feb-10 12:00N 34°54' E 136°47'713.8
2018-Feb-10 11:30N 34°47' E 136°48'714.3
2018-Feb-10 11:00N 34°41' E 136°52'814.5
2018-Feb-10 10:28N 34°35' E 136°59'2813.2
2018-Feb-10 08:21N 34°09' E 136°48'514.4
2018-Feb-10 08:00N 34°05' E 136°44'2614.1
2018-Feb-10 06:09N 33°47' E 136°21'224 5.3
2018-Feb-08 12:00N 33°41' E 131°52'1413.7
2018-Feb-08 11:00N 33°28' E 131°57'713.2
2018-Feb-08 10:30N 33°22' E 131°59'  
Track history (hours):
 
Tides and Currents Weather Stations Pressure Air Temp Water Temp Dewpoint Dewpoint Depression Visibility Wind Speed Wind Dir Waves Ship Positions

Sunny Noah

Last reported at 2018-Feb-18 07:13 UTC. Time now 2018-Feb-19 04:11 UTC.
Position N 34°32' E 137°01'.

Length 110 m; draft 6.3 m.

Type: Tanker. MMSI: 431003074.

Date/timePositionNaut miles runAvg speedWind from/ knotsBaromVisibWave heightAir tempDewpointWater temp
2018-Feb-18 07:13N 34°32' E 137°01'312.8
2018-Feb-18 06:59N 34°34' E 136°59'613.2
2018-Feb-18 06:30N 34°38' E 136°53'713.5
2018-Feb-18 06:01N 34°44' E 136°48'713.8
2018-Feb-18 05:30N 34°50' E 136°46'713.6
2018-Feb-18 05:00N 34°57' E 136°47'3 4.9
2018-Feb-18 04:26N 34°59' E 136°50'0 0.0
2018-Feb-18 03:59N 34°59' E 136°50'0 0.0
2018-Feb-18 03:29N 34°59' E 136°50'0 0.0
2018-Feb-18 02:56N 34°59' E 136°50'0 0.0
2018-Feb-18 02:29N 34°59' E 136°50'0 0.0
2018-Feb-18 01:56N 34°59' E 136°50'0 0.0
2018-Feb-18 01:28N 34°59' E 136°50'0 0.0
2018-Feb-18 00:56N 34°59' E 136°50'0 0.0
2018-Feb-18 00:26N 34°59' E 136°50'0 0.0
2018-Feb-17 23:53N 34°59' E 136°50'1 2.9
2018-Feb-17 23:30N 34°59' E 136°49'3 4.2
2018-Feb-17 22:55N 34°57' E 136°46'0 0.0
2018-Feb-17 22:28N 34°57' E 136°46'0 0.0
2018-Feb-17 21:55N 34°57' E 136°46'0 0.0
2018-Feb-17 21:25N 34°57' E 136°46'0 0.1
2018-Feb-17 20:55N 34°57' E 136°47'0 0.0
2018-Feb-17 20:28N 34°57' E 136°47'0 0.0
2018-Feb-17 19:55N 34°57' E 136°47'0 0.0
2018-Feb-17 19:25N 34°57' E 136°47'0 0.0
2018-Feb-17 18:55N 34°57' E 136°47'0 0.0
2018-Feb-17 18:25N 34°57' E 136°47'0 0.0
2018-Feb-17 17:58N 34°57' E 136°47'0 0.0
2018-Feb-17 17:28N 34°57' E 136°47'0 0.1
2018-Feb-17 16:58N 34°57' E 136°46'0 0.1
2018-Feb-17 16:25N 34°57' E 136°47'0 0.0
2018-Feb-17 15:55N 34°57' E 136°47'0 0.1
2018-Feb-17 15:28N 34°57' E 136°46'0 0.1
2018-Feb-17 14:58N 34°57' E 136°47'0 0.0
2018-Feb-17 14:28N 34°57' E 136°47'0 0.0
2018-Feb-17 13:55N 34°57' E 136°47'0 0.0
2018-Feb-17 13:19N 34°57' E 136°47'0 0.0
2018-Feb-17 12:55N 34°57' E 136°47'0 0.0
2018-Feb-17 12:28N 34°57' E 136°47'0 0.0
2018-Feb-17 11:58N 34°57' E 136°47'0 0.0
2018-Feb-17 11:25N 34°57' E 136°47'0 0.0
2018-Feb-17 10:58N 34°57' E 136°47'0 0.0
2018-Feb-17 10:25N 34°57' E 136°47'0 0.0
2018-Feb-17 09:55N 34°57' E 136°47'0 0.0
2018-Feb-17 09:25N 34°57' E 136°47'0 0.0
2018-Feb-17 08:58N 34°57' E 136°47'0 0.1
2018-Feb-17 08:25N 34°57' E 136°47'0 0.1
2018-Feb-17 07:55N 34°57' E 136°47'0 0.0
2018-Feb-17 07:28N 34°57' E 136°47'0 0.0
2018-Feb-17 06:55N 34°57' E 136°47'0 0.1
2018-Feb-17 06:25N 34°57' E 136°47'0 0.0
2018-Feb-17 05:58N 34°57' E 136°47'0 0.1
2018-Feb-17 05:28N 34°57' E 136°47'0 0.1
2018-Feb-17 04:58N 34°57' E 136°47'0 0.0
2018-Feb-17 04:25N 34°57' E 136°47'0 1.2
2018-Feb-17 04:00N 34°58' E 136°47'3 5.7
2018-Feb-17 03:28N 34°59' E 136°50'0 0.0
2018-Feb-17 02:58N 34°59' E 136°50'0 0.0
2018-Feb-17 02:25N 34°59' E 136°50'0 0.0
2018-Feb-17 01:55N 34°59' E 136°50'0 0.0
2018-Feb-17 01:28N 34°59' E 136°50'0 0.0
2018-Feb-17 00:58N 34°59' E 136°50'0 0.0
2018-Feb-17 00:25N 34°59' E 136°50'0 0.0
2018-Feb-16 23:58N 34°59' E 136°50'0 0.0
2018-Feb-16 23:28N 34°59' E 136°50'1 1.8
2018-Feb-16 23:00N 34°59' E 136°49'4 7.4
2018-Feb-16 22:30N 35°02' E 136°51'0 0.2
2018-Feb-16 21:56N 35°02' E 136°51'0 0.0
2018-Feb-16 21:29N 35°02' E 136°51'0 0.0
2018-Feb-16 20:56N 35°02' E 136°51'0 0.0
2018-Feb-16 20:29N 35°02' E 136°51'0 0.0
2018-Feb-16 19:59N 35°02' E 136°51'0 0.0
2018-Feb-16 19:29N 35°02' E 136°51'0 0.0
2018-Feb-16 18:56N 35°02' E 136°51'0 0.0
2018-Feb-16 18:29N 35°02' E 136°51'0 0.0
2018-Feb-16 17:56N 35°02' E 136°51'0 0.0
2018-Feb-16 17:26N 35°02' E 136°51'0 0.0
2018-Feb-16 16:56N 35°02' E 136°51'0 0.0
2018-Feb-16 16:20N 35°02' E 136°51'0 0.0
2018-Feb-16 15:56N 35°02' E 136°51'0 0.0
2018-Feb-16 15:26N 35°02' E 136°51'0 0.0
2018-Feb-16 14:56N 35°02' E 136°51'0 0.0
2018-Feb-16 14:26N 35°02' E 136°51'0 0.0
2018-Feb-16 13:59N 35°02' E 136°51'0 0.0
2018-Feb-16 13:26N 35°02' E 136°51'0 0.0
2018-Feb-16 12:59N 35°02' E 136°51'0 0.0
2018-Feb-16 12:26N 35°02' E 136°51'0 0.0
2018-Feb-16 11:56N 35°02' E 136°51'0 0.0
2018-Feb-16 11:26N 35°02' E 136°51'0 0.0
2018-Feb-16 10:59N 35°02' E 136°51'0 0.0
2018-Feb-16 10:26N 35°02' E 136°51'0 0.0
2018-Feb-16 09:56N 35°02' E 136°51'0 0.0
2018-Feb-16 09:26N 35°02' E 136°51'0 0.0
2018-Feb-16 08:56N 35°02' E 136°51'0 0.0
2018-Feb-16 08:20N 35°02' E 136°51'0 0.0
2018-Feb-16 07:56N 35°02' E 136°51'0 0.0
2018-Feb-16 07:26N 35°02' E 136°51'0 0.0
2018-Feb-16 06:56N 35°02' E 136°51'0 0.0
2018-Feb-16 06:29N 35°02' E 136°51'0 0.0
2018-Feb-16 05:59N 35°02' E 136°51'0 0.0
2018-Feb-16 05:29N 35°02' E 136°51'0 0.0
2018-Feb-16 04:53N 35°02' E 136°51'0 0.0
2018-Feb-16 04:26N 35°02' E 136°51'0 0.0
2018-Feb-16 03:56N 35°02' E 136°51'0 0.0
2018-Feb-16 03:26N 35°02' E 136°51'0 0.0
2018-Feb-16 02:56N 35°02' E 136°51'0 0.0
2018-Feb-16 02:26N 35°02' E 136°51'0 0.0
2018-Feb-16 01:56N 35°02' E 136°51'0 0.0
2018-Feb-16 01:29N 35°02' E 136°51'0 0.0
2018-Feb-16 00:59N 35°02' E 136°51'0 0.0
2018-Feb-16 00:26N 35°02' E 136°51'0 0.0
2018-Feb-15 23:56N 35°02' E 136°51'0 0.0
2018-Feb-15 23:14N 35°02' E 136°51'0 0.2
2018-Feb-15 23:00N 35°02' E 136°51'3 5.9
2018-Feb-15 22:30N 34°60' E 136°49'2 4.0
2018-Feb-15 21:59N 34°58' E 136°47'0 0.1
2018-Feb-15 21:29N 34°58' E 136°47'0 0.0
2018-Feb-15 20:59N 34°58' E 136°47'0 0.0
2018-Feb-15 20:29N 34°58' E 136°47'0 0.0
2018-Feb-15 19:59N 34°58' E 136°47'0 0.1
2018-Feb-15 19:29N 34°58' E 136°47'0 0.0
2018-Feb-15 18:59N 34°58' E 136°47'0 0.0
2018-Feb-15 18:23N 34°58' E 136°47'0 0.0
2018-Feb-15 17:59N 34°58' E 136°47'0 0.1
2018-Feb-15 17:29N 34°58' E 136°47'0 0.0
2018-Feb-15 16:59N 34°58' E 136°47'0 0.0
2018-Feb-15 16:29N 34°58' E 136°47'0 0.0
2018-Feb-15 15:59N 34°58' E 136°47'0 0.0
2018-Feb-15 15:29N 34°58' E 136°47'0 0.0
2018-Feb-15 14:59N 34°58' E 136°47'0 0.0
2018-Feb-15 14:29N 34°58' E 136°47'0 0.0
2018-Feb-15 13:59N 34°58' E 136°47'0 0.0
2018-Feb-15 13:29N 34°58' E 136°47'0 0.0
2018-Feb-15 12:59N 34°58' E 136°47'0 0.0
2018-Feb-15 12:29N 34°58' E 136°47'3 7.0
2018-Feb-15 12:01N 34°55' E 136°47'713.3
2018-Feb-15 11:30N 34°48' E 136°47'713.1
2018-Feb-15 11:01N 34°43' E 136°51'713.1
2018-Feb-15 10:30N 34°37' E 136°56'713.2
2018-Feb-15 10:00N 34°33' E 137°02'2713.2
2018-Feb-15 07:59N 34°08' E 136°48'3114.4
2018-Feb-15 05:51N 33°47' E 136°21'16814.3
2018-Feb-14 18:05N 32°46' E 133°15'6613.0
2018-Feb-14 12:57N 33°14' E 132°03'2714.5
2018-Feb-14 11:07N 33°39' E 131°51'314.2
2018-Feb-14 10:55N 33°42' E 131°50'614.1
2018-Feb-14 10:30N 33°48' E 131°49'714.4
2018-Feb-14 10:00N 33°54' E 131°46'612.5
2018-Feb-14 09:30N 34°01' E 131°46'2 2.4
2018-Feb-14 08:30N 34°02' E 131°48'0 0.0
2018-Feb-14 07:54N 34°02' E 131°48'0 0.0
2018-Feb-14 07:30N 34°02' E 131°48'0 0.0
2018-Feb-14 07:00N 34°02' E 131°48'0 0.0
2018-Feb-14 06:30N 34°02' E 131°48'0 0.0
2018-Feb-14 05:57N 34°02' E 131°48'0 0.0
2018-Feb-14 05:21N 34°02' E 131°48'0 1.1
2018-Feb-14 04:59N 34°02' E 131°48'0 0.3
2018-Feb-14 04:30N 34°02' E 131°49'2 2.2
2018-Feb-14 03:48N 34°01' E 131°47'0 0.1
2018-Feb-14 03:30N 34°01' E 131°47'2 3.2
2018-Feb-14 02:54N 34°02' E 131°49'0 0.0
2018-Feb-14 02:30N 34°02' E 131°49'0 0.0
2018-Feb-14 02:00N 34°02' E 131°49'0 0.0
2018-Feb-14 01:24N 34°02' E 131°49'0 0.0
2018-Feb-14 01:00N 34°02' E 131°49'0 0.0
2018-Feb-14 00:30N 34°02' E 131°49'0 0.0
2018-Feb-13 23:30N 34°02' E 131°49'0 0.0
2018-Feb-13 22:54N 34°02' E 131°49'0 0.0
2018-Feb-13 22:30N 34°02' E 131°49'0 0.2
2018-Feb-13 21:57N 34°02' E 131°49'2 4.1
2018-Feb-13 21:28N 34°01' E 131°47'0 0.0
2018-Feb-13 20:58N 34°01' E 131°47'0 0.0
2018-Feb-13 19:28N 34°01' E 131°47'0 0.0
2018-Feb-13 18:58N 34°01' E 131°47'0 0.0
2018-Feb-13 18:28N 34°01' E 131°47'0 0.0
2018-Feb-13 17:58N 34°01' E 131°47'0 0.0
2018-Feb-13 17:22N 34°01' E 131°47'0 0.0
2018-Feb-13 16:46N 34°01' E 131°47'0 0.0
2018-Feb-13 16:22N 34°01' E 131°47'0 0.0
2018-Feb-13 15:58N 34°01' E 131°47'0 0.0
2018-Feb-13 15:10N 34°01' E 131°47'0 0.0
2018-Feb-13 14:58N 34°01' E 131°47'0 0.0
2018-Feb-13 14:22N 34°01' E 131°47'0 0.0
2018-Feb-13 13:58N 34°01' E 131°47'2 5.3
2018-Feb-13 13:30N 33°59' E 131°45'712.9
2018-Feb-13 12:56N 33°52' E 131°48'613.6
2018-Feb-13 12:30N 33°47' E 131°50'713.5
2018-Feb-13 12:00N 33°40' E 131°52'713.7
2018-Feb-13 11:30N 33°33' E 131°55'713.9
2018-Feb-13 10:59N 33°27' E 131°57'713.9
2018-Feb-13 10:30N 33°20' E 131°60'26011.0
2018-Feb-12 10:53N 34°33' E 137°01'513.1
2018-Feb-12 10:30N 34°36' E 136°57'714.3
2018-Feb-12 10:00N 34°40' E 136°50'714.6
2018-Feb-12 09:30N 34°47' E 136°46'714.3
2018-Feb-12 09:00N 34°54' E 136°46'611.2
2018-Feb-12 08:30N 34°59' E 136°50'0 0.9
2018-Feb-12 07:59N 34°59' E 136°50'0 0.0
2018-Feb-12 07:26N 34°59' E 136°50'0 0.0
2018-Feb-12 06:56N 34°59' E 136°50'0 0.0
2018-Feb-12 06:26N 34°59' E 136°50'0 0.0
2018-Feb-12 05:59N 34°59' E 136°50'0 0.0
2018-Feb-12 05:29N 34°59' E 136°50'0 0.3
2018-Feb-12 04:59N 34°59' E 136°50'0 0.2
2018-Feb-12 04:26N 34°59' E 136°50'0 0.0
2018-Feb-12 03:59N 34°59' E 136°50'0 0.0
2018-Feb-12 03:20N 34°59' E 136°50'0 0.0
2018-Feb-12 02:56N 34°59' E 136°50'0 0.0
2018-Feb-12 02:29N 34°59' E 136°50'0 0.0
2018-Feb-12 01:56N 34°59' E 136°50'0 0.0
2018-Feb-12 01:26N 34°59' E 136°50'0 0.0
2018-Feb-12 00:56N 34°59' E 136°50'0 0.0
2018-Feb-12 00:26N 34°59' E 136°50'0 0.0
2018-Feb-11 23:59N 34°59' E 136°50'1 1.9
2018-Feb-11 23:30N 34°59' E 136°49'3 7.0
2018-Feb-11 23:01N 35°02' E 136°51'1 1.4
2018-Feb-11 22:30N 35°02' E 136°51'0 0.0
2018-Feb-11 22:00N 35°02' E 136°51'0 0.0
2018-Feb-11 21:27N 35°02' E 136°51'0 0.0
2018-Feb-11 20:57N 35°02' E 136°51'0 0.0
2018-Feb-11 20:27N 35°02' E 136°51'0 0.0
2018-Feb-11 19:58N 35°02' E 136°51'0 0.0
2018-Feb-11 19:28N 35°02' E 136°51'0 0.0
2018-Feb-11 19:00N 35°02' E 136°51'0 0.0
2018-Feb-11 18:28N 35°02' E 136°51'0 0.0
2018-Feb-11 17:57N 35°02' E 136°51'0 0.0
2018-Feb-11 17:28N 35°02' E 136°51'0 0.0
2018-Feb-11 17:00N 35°02' E 136°51'0 0.0
2018-Feb-11 16:30N 35°02' E 136°51'0 0.0
2018-Feb-11 16:01N 35°02' E 136°51'0 0.0
2018-Feb-11 15:27N 35°02' E 136°51'0 0.0
2018-Feb-11 14:57N 35°02' E 136°51'0 0.0
2018-Feb-11 14:27N 35°02' E 136°51'0 0.0
2018-Feb-11 13:58N 35°02' E 136°51'0 0.0
2018-Feb-11 13:31N 35°02' E 136°51'0 0.0
2018-Feb-11 12:58N 35°02' E 136°51'0 0.0
2018-Feb-11 12:28N 35°02' E 136°51'0 0.0
2018-Feb-11 11:57N 35°02' E 136°51'0 0.0
2018-Feb-11 11:28N 35°02' E 136°51'0 0.0
2018-Feb-11 10:57N 35°02' E 136°51'0 0.0
2018-Feb-11 10:30N 35°02' E 136°51'0 0.0
2018-Feb-11 09:57N 35°02' E 136°51'0 0.0
2018-Feb-11 09:27N 35°02' E 136°51'0 0.0
2018-Feb-11 08:58N 35°02' E 136°51'0 0.0
2018-Feb-11 08:28N 35°02' E 136°51'0 0.0
2018-Feb-11 08:00N 35°02' E 136°51'0 0.0
2018-Feb-11 07:27N 35°02' E 136°51'0 0.0
2018-Feb-11 07:00N 35°02' E 136°51'0 0.0
2018-Feb-11 06:27N 35°02' E 136°51'0 0.0
2018-Feb-11 05:57N 35°02' E 136°51'0 0.0
2018-Feb-11 05:27N 35°02' E 136°51'0 0.0
2018-Feb-11 05:01N 35°02' E 136°51'0 0.0
2018-Feb-11 04:28N 35°02' E 136°51'0 0.0
2018-Feb-11 03:58N 35°02' E 136°51'0 0.0
2018-Feb-11 03:31N 35°02' E 136°51'0 0.0
2018-Feb-11 03:00N 35°02' E 136°51'0 0.0
2018-Feb-11 02:27N 35°02' E 136°51'0 0.0
2018-Feb-11 02:00N 35°02' E 136°51'0 0.0
2018-Feb-11 01:27N 35°02' E 136°51'0 0.0
2018-Feb-11 01:00N 35°02' E 136°51'0 0.0
2018-Feb-11 00:30N 35°02' E 136°51'0 0.0
2018-Feb-10 23:58N 35°02' E 136°51'0 0.0
2018-Feb-10 23:27N 35°02' E 136°51'0 0.1
2018-Feb-10 23:00N 35°02' E 136°51'3 6.9
2018-Feb-10 22:30N 34°59' E 136°49'2 3.6
2018-Feb-10 22:00N 34°58' E 136°47'0 0.0
2018-Feb-10 21:28N 34°58' E 136°47'0 0.0
2018-Feb-10 20:58N 34°58' E 136°47'0 0.0
2018-Feb-10 20:28N 34°58' E 136°47'0 0.0
2018-Feb-10 19:58N 34°58' E 136°47'0 0.0
2018-Feb-10 19:28N 34°58' E 136°47'0 0.0
2018-Feb-10 18:58N 34°58' E 136°47'0 0.0
2018-Feb-10 18:28N 34°58' E 136°47'0 0.1
2018-Feb-10 17:58N 34°58' E 136°47'0 0.1
2018-Feb-10 17:28N 34°58' E 136°47'0 0.1
2018-Feb-10 16:58N 34°58' E 136°47'0 0.0
2018-Feb-10 16:28N 34°58' E 136°47'0 0.0
2018-Feb-10 15:58N 34°58' E 136°47'0 0.0
2018-Feb-10 15:28N 34°58' E 136°47'0 0.0
2018-Feb-10 14:58N 34°58' E 136°47'0 0.0
2018-Feb-10 14:28N 34°58' E 136°47'0 0.0
2018-Feb-10 13:58N 34°58' E 136°47'0 0.0
2018-Feb-10 13:28N 34°58' E 136°47'0 0.0
2018-Feb-10 12:58N 34°58' E 136°47'0 0.2
2018-Feb-10 12:28N 34°58' E 136°47'510.0
2018-Feb-10 12:00N 34°54' E 136°47'713.8
2018-Feb-10 11:30N 34°47' E 136°48'714.3
2018-Feb-10 11:00N 34°41' E 136°52'814.5
2018-Feb-10 10:28N 34°35' E 136°59'2813.2
2018-Feb-10 08:21N 34°09' E 136°48'514.4
2018-Feb-10 08:00N 34°05' E 136°44'2614.1
2018-Feb-10 06:09N 33°47' E 136°21'224 5.3
2018-Feb-08 12:00N 33°41' E 131°52'1413.7
2018-Feb-08 11:00N 33°28' E 131°57'713.2
2018-Feb-08 10:30N 33°22' E 131°59'  

Dump ship's entire track history